Time;durP1;ratioP1;P1;durP2;ratioP2;P2;SDS_P1;SDS_P2;PMS_P1;PMS_P2;Temp;Humidity;BMP_temperature;BMP_pressure;BME280_temperature;BME280_humidity;BME280_pressure;Samples;Min_cycle;Max_cycle;Signal;HPM_P1;HPM_P2
2021/12/18 00:02:20;;;;;;;9.63;4.60;;;;;;;2.62;100.00;101431.03;5136507;27;20084;-76
2021/12/18 00:04:48;;;;;;;10.90;4.60;;;;;;;2.66;100.00;101438.00;5136635;27;20088;-76
2021/12/18 00:07:16;;;;;;;11.75;4.72;;;;;;;2.57;100.00;101436.31;5136293;27;20043;-75
2021/12/18 00:09:46;;;;;;;11.30;4.65;;;;;;;2.60;100.00;101438.91;5136322;27;20054;-76
2021/12/18 00:12:14;;;;;;;12.90;4.80;;;;;;;2.60;100.00;101446.81;5136096;27;20039;-76
2021/12/18 00:14:42;;;;;;;13.02;4.90;;;;;;;2.59;100.00;101439.81;5136445;27;20092;-76
2021/12/18 00:17:11;;;;;;;7.93;4.45;;;;;;;2.64;100.00;101443.28;5136213;27;20043;-76
2021/12/18 00:19:40;;;;;;;7.72;4.15;;;;;;;2.63;100.00;101438.91;5136336;27;20039;-76
2021/12/18 00:22:09;;;;;;;11.80;4.97;;;;;;;2.66;100.00;101443.25;5135613;27;20055;-78
2021/12/18 00:24:37;;;;;;;9.50;4.50;;;;;;;2.61;100.00;101445.09;5136287;27;20039;-78
2021/12/18 00:27:06;;;;;;;10.65;4.40;;;;;;;2.60;100.00;101441.53;5135970;27;20039;-78
2021/12/18 00:29:34;;;;;;;10.65;4.90;;;;;;;2.53;100.00;101453.03;5134897;27;20051;-76
2021/12/18 00:32:02;;;;;;;10.70;4.40;;;;;;;2.50;100.00;101446.00;5135734;27;20042;-76
2021/12/18 00:34:30;;;;;;;11.48;5.05;;;;;;;2.49;100.00;101451.28;5136111;27;20075;-76
2021/12/18 00:37:00;;;;;;;10.45;4.72;;;;;;;2.54;100.00;101438.97;5136096;27;20039;-76
2021/12/18 00:39:31;;;;;;;10.75;4.57;;;;;;;2.49;100.00;101446.03;5135795;27;20047;-76
2021/12/18 00:42:19;;;;;;;11.20;4.97;;;;;;;2.43;100.00;101430.31;5137280;27;20108;-77
2021/12/18 00:44:54;;;;;;;12.82;5.03;;;;;;;2.44;100.00;101432.03;5136015;27;20039;-77
2021/12/18 00:47:22;;;;;;;13.05;5.30;;;;;;;2.50;100.00;101447.78;5135273;27;20043;-77
2021/12/18 00:49:51;;;;;;;10.40;4.90;;;;;;;2.40;100.00;101452.25;5137021;27;20039;-77
2021/12/18 00:52:20;;;;;;;12.60;4.78;;;;;;;2.52;100.00;101441.63;5135036;27;20046;-77
2021/12/18 00:54:48;;;;;;;15.48;5.70;;;;;;;2.51;100.00;101449.53;5135665;27;20042;-77
2021/12/18 00:57:16;;;;;;;11.20;4.43;;;;;;;2.57;100.00;101450.34;5135361;27;20043;-76
2021/12/18 00:59:45;;;;;;;11.40;5.20;;;;;;;2.63;100.00;101456.47;5135813;27;20066;-77
2021/12/18 01:02:13;;;;;;;12.30;5.13;;;;;;;2.55;100.00;101454.78;5134201;27;20051;-75
2021/12/18 01:04:41;;;;;;;11.07;5.15;;;;;;;2.50;100.00;101453.03;5135688;27;20047;-75
2021/12/18 01:07:10;;;;;;;12.35;5.60;;;;;;;2.51;100.00;101460.06;5135292;27;20058;-76
2021/12/18 01:09:56;;;;;;;12.45;5.20;;;;;;;2.50;100.00;101453.03;5135515;27;20095;-75
2021/12/18 01:12:29;;;;;;;11.90;4.90;;;;;;;2.52;100.00;101467.09;5135040;27;20035;-75
2021/12/18 01:15:09;;;;;;;9.63;4.90;;;;;;;2.51;100.00;101460.97;5135358;27;20043;-75
2021/12/18 01:23:05;;;;;;;13.18;5.60;;;;;;;2.42;100.00;101475.97;5134456;27;20497;-75
2021/12/18 01:25:35;;;;;;;13.27;5.75;;;;;;;2.39;100.00;101474.19;5134748;27;20567;-76
2021/12/18 01:28:04;;;;;;;12.15;5.95;;;;;;;2.25;100.00;101476.94;5134747;27;20393;-75
2021/12/18 01:30:32;;;;;;;11.02;5.88;;;;;;;2.29;100.00;101470.75;5134773;27;20043;-75
2021/12/18 01:33:00;;;;;;;14.18;5.93;;;;;;;2.40;100.00;101485.59;5134900;27;20039;-76
2021/12/18 01:35:29;;;;;;;16.25;6.22;;;;;;;2.35;100.00;101484.78;5134301;27;20074;-75
2021/12/18 01:37:58;;;;;;;13.63;6.32;;;;;;;2.35;100.00;101485.66;5134935;27;20126;-75
2021/12/18 01:40:27;;;;;;;11.55;6.25;;;;;;;2.36;100.00;101492.66;5134494;27;20464;-75
2021/12/18 01:46:17;;;;;;;12.27;5.70;;;;;;;2.32;100.00;101492.66;5134776;27;20039;-75
2021/12/18 01:51:47;;;;;;;13.43;6.10;;;;;;;2.33;100.00;101497.97;5134324;27;19926;-75
2021/12/18 01:54:16;;;;;;;13.45;6.03;;;;;;;2.24;100.00;101509.41;5134300;27;20487;-75
2021/12/18 01:56:44;;;;;;;15.00;6.45;;;;;;;2.23;100.00;101504.16;5134581;27;20043;-75
2021/12/18 01:59:14;;;;;;;11.82;6.03;;;;;;;2.24;100.00;101504.16;5133959;27;20117;-76
2021/12/18 02:01:42;;;;;;;11.23;5.90;;;;;;;2.27;100.00;101496.22;5134251;27;20043;-75
2021/12/18 02:04:10;;;;;;;14.60;6.72;;;;;;;2.11;100.00;101494.56;5134094;27;20047;-75
2021/12/18 02:06:39;;;;;;;16.83;6.93;;;;;;;2.25;100.00;101500.63;5134642;27;20047;-75
2021/12/18 02:09:07;;;;;;;14.52;6.47;;;;;;;2.26;100.00;101501.50;5133823;27;20125;-78
2021/12/18 02:11:36;;;;;;;13.30;6.43;;;;;;;2.26;100.00;101499.75;5132832;27;20050;-76
2021/12/18 02:14:33;;;;;;;14.80;6.95;;;;;;;2.37;100.00;101514.59;5133823;27;20042;-76
2021/12/18 02:19:57;;;;;;;10.65;5.65;;;;;;;2.32;100.00;101522.53;5133863;27;20043;-75
2021/12/18 02:22:28;;;;;;;13.10;6.75;;;;;;;2.29;100.00;101522.53;5167075;27;20441;-77
2021/12/18 02:24:57;;;;;;;14.93;6.22;;;;;;;2.21;100.00;101512.03;5134277;27;20103;-77
2021/12/18 02:27:25;;;;;;;12.63;6.20;;;;;;;2.34;100.00;101525.16;5133755;28;20039;-77
2021/12/18 02:29:53;;;;;;;15.88;6.38;;;;;;;2.29;100.00;101520.78;5133883;28;20039;-76
2021/12/18 02:32:22;;;;;;;12.90;5.72;;;;;;;2.33;100.00;101524.28;5133730;28;20088;-76
2021/12/18 02:34:58;;;;;;;10.90;6.28;;;;;;;2.34;100.00;101520.78;5133649;28;20063;-77
2021/12/18 02:37:30;;;;;;;10.98;6.00;;;;;;;2.31;100.00;101526.03;5132452;28;20051;-76
2021/12/18 02:42:40;;;;;;;12.05;6.53;;;;;;;2.10;100.00;101550.72;5110901;28;20051;-80
2021/12/18 02:45:09;;;;;;;14.25;6.32;;;;;;;2.17;100.00;101549.81;5134034;27;20053;-80
2021/12/18 02:47:37;;;;;;;13.27;6.35;;;;;;;1.96;100.00;101547.28;5134004;28;20051;-77
2021/12/18 02:50:07;;;;;;;18.48;7.00;;;;;;;2.01;100.00;101548.13;5133670;28;20047;-77
2021/12/18 02:52:37;;;;;;;14.15;7.05;;;;;;;2.12;100.00;101535.78;5133559;28;20469;-77
2021/12/18 02:55:06;;;;;;;15.43;6.97;;;;;;;2.09;100.00;101530.56;5133519;28;20511;-77
2021/12/18 02:57:34;;;;;;;15.05;6.93;;;;;;;2.09;100.00;101522.66;5133498;27;20126;-76
2021/12/18 03:00:03;;;;;;;16.90;7.07;;;;;;;2.09;100.00;101519.16;5133604;28;20047;-77
2021/12/18 03:02:36;;;;;;;16.33;6.95;;;;;;;2.15;100.00;101522.63;5133581;28;20468;-77
2021/12/18 03:05:08;;;;;;;13.70;6.72;;;;;;;2.16;100.00;101520.88;5133845;28;20046;-76
2021/12/18 03:07:38;;;;;;;15.55;6.43;;;;;;;2.13;100.00;101532.31;5133273;28;20134;-75
2021/12/18 03:24:29;;;;;;;18.45;7.03;;;;;;;2.01;100.00;101563.91;5109128;27;20055;-74
2021/12/18 03:26:58;;;;;;;14.27;6.82;;;;;;;2.02;100.00;101573.56;5137287;27;20122;-75
2021/12/18 03:29:26;;;;;;;15.63;5.82;;;;;;;2.02;100.00;101565.66;5136777;27;20047;-75
2021/12/18 03:31:54;;;;;;;13.73;6.50;;;;;;;2.01;100.00;101570.06;5136265;27;20047;-76
2021/12/18 03:34:23;;;;;;;13.50;6.13;;;;;;;2.01;100.00;101570.06;5136937;27;20035;-74
2021/12/18 03:36:52;;;;;;;11.75;6.38;;;;;;;1.89;100.00;101566.59;5137271;27;20394;-77
2021/12/18 03:39:21;;;;;;;16.30;6.72;;;;;;;1.97;100.00;101583.25;5136561;27;20050;-77
2021/12/18 03:41:51;;;;;;;14.35;6.05;;;;;;;1.95;100.00;101585.91;5137320;27;20049;-74
2021/12/18 03:44:19;;;;;;;13.82;6.10;;;;;;;1.98;100.00;101591.13;5136568;27;20146;-75
2021/12/18 03:46:48;;;;;;;16.60;6.32;;;;;;;1.87;100.00;101579.78;5137046;27;20071;-74
2021/12/18 03:49:17;;;;;;;14.75;6.63;;;;;;;1.85;100.00;101589.44;5136691;27;20437;-74
2021/12/18 03:51:45;;;;;;;16.38;6.60;;;;;;;1.87;100.00;101592.94;5136433;27;20092;-77
2021/12/18 03:54:13;;;;;;;14.95;6.43;;;;;;;1.92;100.00;101590.28;5136861;27;20040;-77
2021/12/18 03:56:43;;;;;;;12.63;6.32;;;;;;;1.84;100.00;101587.69;5136531;27;20047;-80
2021/12/18 03:59:11;;;;;;;11.68;6.38;;;;;;;1.79;100.00;101583.31;5136514;27;20484;-78
2021/12/18 04:01:39;;;;;;;13.75;6.30;;;;;;;1.73;100.00;101589.44;5136340;27;20047;-79
2021/12/18 04:04:08;;;;;;;10.32;5.55;;;;;;;1.79;100.00;101597.34;5136681;27;20050;-79
2021/12/18 04:06:39;;;;;;;12.10;6.05;;;;;;;1.86;100.00;101592.94;5135962;27;20042;-78
2021/12/18 04:09:08;;;;;;;13.90;6.38;;;;;;;1.75;100.00;101582.44;5136799;27;20040;-78
2021/12/18 04:11:36;;;;;;;12.10;6.03;;;;;;;1.62;100.00;101570.19;5135965;27;20122;-79
2021/12/18 04:14:06;;;;;;;14.30;5.45;;;;;;;1.72;100.00;101567.53;5136125;27;20036;-79
2021/12/18 04:16:36;;;;;;;17.92;6.47;;;;;;;1.67;100.00;101558.78;5135835;27;20050;-77
2021/12/18 04:19:04;;;;;;;12.30;6.13;;;;;;;1.71;100.00;101557.00;5136133;27;20065;-78
2021/12/18 04:21:34;;;;;;;15.38;6.85;;;;;;;1.73;100.00;101564.00;5135753;27;20138;-78
2021/12/18 04:24:03;;;;;;;13.15;6.28;;;;;;;1.64;100.00;101569.34;5136026;27;20070;-78
2021/12/18 04:26:32;;;;;;;15.68;6.22;;;;;;;1.68;100.00;101573.69;5135981;27;20035;-75
2021/12/18 04:29:01;;;;;;;15.25;6.57;;;;;;;1.62;100.00;101576.31;5135921;27;20038;-75
2021/12/18 04:31:31;;;;;;;16.95;6.65;;;;;;;1.63;100.00;101588.59;5135886;27;20043;-75
2021/12/18 04:33:59;;;;;;;13.48;6.20;;;;;;;1.67;100.00;101590.34;5135774;27;20039;-75
2021/12/18 04:36:27;;;;;;;12.27;6.15;;;;;;;1.64;100.00;101602.63;5135565;27;20392;-77
2021/12/18 04:38:55;;;;;;;13.90;6.22;;;;;;;1.64;100.00;101590.38;5135703;27;20039;-77
2021/12/18 04:41:36;;;;;;;11.55;6.22;;;;;;;1.67;100.00;101606.13;5134291;27;20515;-77
2021/12/18 04:44:04;;;;;;;14.73;6.15;;;;;;;1.67;100.00;101610.53;5135954;27;20468;-75
2021/12/18 04:46:34;;;;;;;12.45;6.07;;;;;;;1.67;100.00;101615.78;5135556;27;20039;-76
2021/12/18 04:49:03;;;;;;;16.23;6.45;;;;;;;1.62;100.00;101618.41;5135547;27;20044;-76
2021/12/18 04:51:31;;;;;;;15.25;6.13;;;;;;;1.64;100.00;101632.47;5135068;27;20050;-76
2021/12/18 04:53:59;;;;;;;12.70;5.78;;;;;;;1.63;100.00;101641.19;5135673;27;20039;-76
2021/12/18 04:56:28;;;;;;;14.35;5.90;;;;;;;1.69;100.00;101637.69;5135468;27;20047;-76
2021/12/18 04:58:56;;;;;;;13.25;6.03;;;;;;;1.62;100.00;101634.19;5134284;27;20047;-76
2021/12/18 05:01:25;;;;;;;13.60;5.75;;;;;;;1.62;100.00;101633.31;5135314;27;20043;-76
2021/12/18 05:03:55;;;;;;;18.80;5.70;;;;;;;1.54;100.00;101641.22;5135558;27;20047;-76
2021/12/18 05:06:24;;;;;;;11.65;5.88;;;;;;;1.54;100.00;101641.22;5135270;27;20052;-77
2021/12/18 05:08:52;;;;;;;12.60;5.80;;;;;;;1.55;100.00;101643.00;5135441;27;20047;-78
2021/12/18 05:11:21;;;;;;;12.73;6.35;;;;;;;1.48;100.00;101651.75;5134741;27;20043;-77
2021/12/18 05:13:49;;;;;;;13.90;6.28;;;;;;;1.57;100.00;101662.28;5135370;27;20472;-75
2021/12/18 05:16:17;;;;;;;14.80;6.25;;;;;;;1.50;100.00;101670.16;5134954;27;20039;-77
2021/12/18 05:18:45;;;;;;;12.90;5.97;;;;;;;1.44;100.00;101671.03;5135224;27;20031;-77
2021/12/18 05:21:15;;;;;;;11.88;5.72;;;;;;;1.61;100.00;101674.53;5135144;27;20047;-77
2021/12/18 05:23:44;;;;;;;15.00;5.72;;;;;;;1.60;100.00;101675.41;5134991;27;20388;-77
2021/12/18 05:26:12;;;;;;;14.70;5.60;;;;;;;1.59;100.00;101683.31;5134871;27;20154;-76
2021/12/18 05:28:40;;;;;;;13.88;6.45;;;;;;;1.59;100.00;101676.28;5134756;27;20039;-77
2021/12/18 05:31:09;;;;;;;13.55;6.22;;;;;;;1.51;100.00;101678.03;5134808;27;20047;-76
2021/12/18 05:33:37;;;;;;;12.25;5.75;;;;;;;1.50;100.00;101675.41;5134735;27;20392;-77
2021/12/18 05:36:24;;;;;;;14.30;6.10;;;;;;;1.41;100.00;101681.56;5134909;27;20043;-77
2021/12/18 05:38:54;;;;;;;14.05;6.40;;;;;;;1.36;100.00;101664.91;5134999;27;20472;-77
2021/12/18 05:41:25;;;;;;;13.18;6.47;;;;;;;1.33;100.00;101673.66;5134886;27;20031;-79
2021/12/18 05:43:53;;;;;;;13.23;5.70;;;;;;;1.38;100.00;101677.19;5135987;27;20442;-77
2021/12/18 05:46:22;;;;;;;11.00;5.45;;;;;;;1.38;100.00;101678.94;5133439;27;20130;-80
2021/12/18 05:48:50;;;;;;;12.93;6.20;;;;;;;1.50;100.00;101680.69;5134065;27;20458;-77
2021/12/18 05:51:19;;;;;;;11.75;6.15;;;;;;;1.41;100.00;101689.44;5134296;27;20049;-77
2021/12/18 05:53:47;;;;;;;10.52;6.18;;;;;;;1.28;100.00;101691.19;5134419;27;20047;-78
2021/12/18 05:56:17;;;;;;;12.98;6.60;;;;;;;1.32;100.00;101695.56;5134531;27;20468;-77
2021/12/18 05:58:45;;;;;;;15.45;7.15;;;;;;;1.18;100.00;101701.69;5133964;27;20130;-77
2021/12/18 06:01:13;;;;;;;15.15;6.60;;;;;;;1.13;100.00;101712.19;5134189;27;20043;-75
2021/12/18 06:03:43;;;;;;;12.68;6.25;;;;;;;1.34;100.00;101696.44;5134145;27;20396;-76
2021/12/18 06:06:11;;;;;;;13.20;5.90;;;;;;;1.37;100.00;101698.22;5134426;27;20043;-76
2021/12/18 06:08:42;;;;;;;16.30;6.03;;;;;;;1.38;100.00;101702.59;5134132;27;20121;-75
2021/12/18 06:11:13;;;;;;;12.57;6.07;;;;;;;1.38;100.00;101708.72;5134492;27;20205;-76
2021/12/18 06:13:44;;;;;;;14.75;6.40;;;;;;;1.34;100.00;101706.06;5134019;27;20043;-74
2021/12/18 06:16:14;;;;;;;13.02;6.05;;;;;;;1.28;100.00;101709.59;5134338;27;20091;-76
2021/12/18 06:18:44;;;;;;;12.30;5.60;;;;;;;1.13;100.00;101717.44;5133850;27;20349;-79
2021/12/18 06:21:14;;;;;;;15.13;6.05;;;;;;;1.17;100.00;101719.22;5134054;27;21523;-80
2021/12/18 06:23:43;;;;;;;11.65;5.50;;;;;;;1.25;100.00;101716.56;5133652;27;20392;-80
2021/12/18 06:26:11;;;;;;;12.27;5.45;;;;;;;1.22;100.00;101719.22;5134092;27;20050;-78
2021/12/18 06:28:40;;;;;;;15.32;6.00;;;;;;;1.28;100.00;101713.97;5132455;27;20574;-78
2021/12/18 06:31:29;;;;;;;11.88;6.13;;;;;;;1.39;100.00;101721.00;5133631;28;20113;-76
2021/12/18 06:33:57;;;;;;;11.73;5.68;;;;;;;1.40;100.00;101721.88;5133748;28;20062;-78
2021/12/18 06:36:27;;;;;;;13.52;5.93;;;;;;;1.21;100.00;101720.97;5133750;28;20388;-84
2021/12/18 06:38:55;;;;;;;14.02;6.35;;;;;;;1.37;100.00;101725.38;5167804;27;20082;-79
2021/12/18 06:41:23;;;;;;;13.63;6.28;;;;;;;1.40;100.00;101730.63;5134059;28;20035;-78
2021/12/18 06:43:52;;;;;;;13.70;5.95;;;;;;;1.33;100.00;101735.88;5133835;28;20123;-78
2021/12/18 06:46:20;;;;;;;15.40;5.97;;;;;;;1.30;100.00;101742.00;5134040;27;20039;-79
2021/12/18 06:48:50;;;;;;;14.57;6.30;;;;;;;1.34;100.00;101750.78;5133723;28;20043;-79
2021/12/18 06:51:18;;;;;;;11.60;6.30;;;;;;;1.27;100.00;101751.66;5133650;28;20532;-78
2021/12/18 06:53:47;;;;;;;15.30;6.05;;;;;;;1.33;100.00;101746.38;5132224;28;20096;-79
2021/12/18 06:56:15;;;;;;;12.90;5.60;;;;;;;1.26;100.00;101749.91;5133824;28;20039;-77
2021/12/18 06:58:43;;;;;;;12.02;5.63;;;;;;;1.26;100.00;101752.53;5134934;27;20043;-79
2021/12/18 07:01:12;;;;;;;11.82;5.65;;;;;;;1.30;100.00;101749.03;5137722;27;20047;-80
2021/12/18 07:03:44;;;;;;;11.32;5.55;;;;;;;1.32;100.00;101755.16;5137639;27;20039;-82
2021/12/18 07:06:14;;;;;;;12.55;6.30;;;;;;;1.35;100.00;101742.91;5137913;27;20122;-76
2021/12/18 07:08:42;;;;;;;13.88;5.68;;;;;;;1.35;100.00;101735.03;5137503;27;20122;-77
2021/12/18 07:11:10;;;;;;;12.43;5.68;;;;;;;1.32;100.00;101740.25;5137632;27;20043;-77
2021/12/18 07:13:38;;;;;;;11.55;5.97;;;;;;;1.39;100.00;101734.13;5136877;27;20049;-74
2021/12/18 07:16:07;;;;;;;12.20;5.80;;;;;;;1.49;100.00;101721.88;5137247;27;20047;-79
2021/12/18 07:18:35;;;;;;;10.30;5.65;;;;;;;1.52;100.00;101721.88;5137069;27;20486;-79
2021/12/18 07:21:04;;;;;;;13.85;6.30;;;;;;;1.51;100.00;101729.75;5137375;27;20059;-77
2021/12/18 07:23:34;;;;;;;12.68;6.10;;;;;;;1.57;100.00;101730.66;5137204;27;20043;-77
2021/12/18 07:26:02;;;;;;;12.02;5.53;;;;;;;1.61;100.00;101729.75;5137383;27;20536;-78
2021/12/18 07:28:30;;;;;;;13.25;5.80;;;;;;;1.75;100.00;101726.28;5137418;27;20404;-83
2021/12/18 07:30:59;;;;;;;14.40;6.40;;;;;;;1.69;100.00;101740.28;5137521;27;20091;-77
2021/12/18 07:33:29;;;;;;;13.43;6.20;;;;;;;1.72;100.00;101735.00;5137337;27;20043;-73
2021/12/18 07:35:58;;;;;;;12.15;5.55;;;;;;;1.83;100.00;101745.53;5140695;27;20042;-74
2021/12/18 07:38:26;;;;;;;10.23;5.70;;;;;;;1.91;100.00;101751.66;5137143;27;20096;-78
2021/12/18 07:40:56;;;;;;;13.65;5.88;;;;;;;1.94;100.00;101764.84;5136985;27;20039;-77
2021/12/18 07:43:24;;;;;;;11.20;5.35;;;;;;;1.95;100.00;101766.59;5136934;27;20047;-80
2021/12/18 07:45:52;;;;;;;10.07;5.38;;;;;;;2.05;100.00;101763.06;5137323;27;20039;-79
2021/12/18 07:48:20;;;;;;;11.60;5.10;;;;;;;1.92;100.00;101772.72;5137142;27;20047;-78
2021/12/18 07:50:49;;;;;;;12.43;5.28;;;;;;;1.93;100.00;101778.84;5136310;27;20039;-78
2021/12/18 07:53:17;;;;;;;11.85;5.30;;;;;;;1.99;100.00;101786.75;5137128;27;20039;-83
2021/12/18 07:55:46;;;;;;;12.70;4.90;;;;;;;1.89;100.00;101780.63;5136458;27;20046;-78
2021/12/18 07:58:15;;;;;;;9.80;5.30;;;;;;;2.01;100.00;101795.53;5136832;27;20078;-79
2021/12/18 08:00:44;;;;;;;12.43;5.35;;;;;;;1.93;100.00;101786.75;5136121;27;20047;-77
2021/12/18 08:03:12;;;;;;;11.02;5.30;;;;;;;2.16;100.00;101776.22;5136755;27;20099;-74
2021/12/18 08:05:41;;;;;;;13.23;5.28;;;;;;;2.13;100.00;101763.94;5135786;27;20484;-76
2021/12/18 08:08:09;;;;;;;16.02;5.55;;;;;;;2.26;100.00;101775.31;5136311;27;20047;-76
2021/12/18 08:10:37;;;;;;;8.85;4.72;;;;;;;2.34;100.00;101767.41;5135654;27;20043;-77
2021/12/18 08:13:05;;;;;;;12.43;5.25;;;;;;;2.29;100.00;101772.69;5136603;27;20046;-75
2021/12/18 08:15:35;;;;;;;10.32;4.80;;;;;;;2.42;100.00;101778.81;5136508;27;20449;-74
2021/12/18 08:18:06;;;;;;;9.82;5.03;;;;;;;2.49;100.00;101776.13;5136071;27;20488;-76
2021/12/18 08:20:34;;;;;;;8.82;5.38;;;;;;;2.50;100.00;101777.00;5136494;27;20126;-76
2021/12/18 08:23:03;;;;;;;11.70;4.90;;;;;;;2.59;100.00;101771.72;5136557;27;20120;-77
2021/12/18 08:25:32;;;;;;;11.68;4.75;;;;;;;2.62;100.00;101774.38;5136422;27;20051;-72
2021/12/18 08:28:02;;;;;;;13.32;5.50;;;;;;;2.62;100.00;101765.59;5135618;27;20511;-74
2021/12/18 08:30:33;;;;;;;11.48;5.28;;;;;;;2.62;100.00;101769.09;5136157;27;20126;-78
2021/12/18 08:33:04;;;;;;;11.63;5.07;;;;;;;2.79;100.00;101769.88;5135764;27;20078;-74
2021/12/18 08:35:33;;;;;;;13.40;5.32;;;;;;;2.80;100.00;101770.78;5136093;27;20485;-74
2021/12/18 08:38:02;;;;;;;11.18;5.80;;;;;;;2.86;100.00;101768.97;5135380;27;20035;-74
2021/12/18 08:40:32;;;;;;;15.77;5.95;;;;;;;2.93;100.00;101784.78;5135718;27;20400;-72
2021/12/18 08:43:01;;;;;;;12.45;5.10;;;;;;;2.96;100.00;101776.84;5135744;27;20070;-71
2021/12/18 08:45:30;;;;;;;10.75;5.15;;;;;;;2.93;100.00;101768.97;5135987;27;20089;-73
2021/12/18 08:47:58;;;;;;;10.50;5.10;;;;;;;2.96;100.00;101775.09;5137908;27;20038;-72
2021/12/18 08:50:28;;;;;;;9.93;5.53;;;;;;;2.97;100.00;101770.69;5147169;27;20483;-71
2021/12/18 08:52:56;;;;;;;11.02;5.28;;;;;;;3.02;100.00;101768.91;5141639;27;20043;-71
2021/12/18 08:55:25;;;;;;;12.93;5.18;;;;;;;3.07;100.00;101775.91;5152504;27;20054;-72
2021/12/18 08:57:53;;;;;;;13.32;5.70;;;;;;;3.11;100.00;101777.66;5141234;27;20531;-70
2021/12/18 09:00:24;;;;;;;9.40;5.18;;;;;;;3.06;100.00;101779.44;5146206;27;20043;-72
2021/12/18 09:02:57;;;;;;;11.95;5.40;;;;;;;3.15;100.00;101771.47;5149626;27;20057;-69
2021/12/18 09:05:26;;;;;;;13.35;6.05;;;;;;;3.13;100.00;101772.38;5154351;27;20073;-68
2021/12/18 09:07:57;;;;;;;13.32;5.55;;;;;;;3.16;100.00;101769.72;5134905;27;20043;-71
2021/12/18 09:10:25;;;;;;;11.52;5.43;;;;;;;3.13;100.00;101761.81;5133500;27;20099;-70
2021/12/18 09:12:56;;;;;;;13.60;5.63;;;;;;;3.10;100.00;101757.44;5150214;27;20057;-70
2021/12/18 09:15:24;;;;;;;11.93;5.50;;;;;;;3.13;100.00;101761.81;5137360;27;20100;-68
2021/12/18 09:17:53;;;;;;;11.23;5.35;;;;;;;3.09;100.00;101760.97;5149420;27;20036;-69
2021/12/18 09:20:21;;;;;;;11.38;4.85;;;;;;;3.28;100.00;101752.94;5144983;27;20046;-77
2021/12/18 09:22:49;;;;;;;12.40;5.47;;;;;;;3.18;100.00;101746.84;5141968;27;20051;-73
2021/12/18 09:25:19;;;;;;;8.27;5.10;;;;;;;3.37;100.00;101750.22;5137850;27;20035;-73
2021/12/18 09:27:47;;;;;;;11.38;5.13;;;;;;;3.39;100.00;101753.75;5134977;27;20031;-73
2021/12/18 09:30:16;;;;;;;10.05;4.75;;;;;;;3.41;100.00;101750.22;5134905;27;20043;-75
2021/12/18 09:32:44;;;;;;;14.13;6.03;;;;;;;3.39;100.00;101754.63;5135248;27;20377;-76
2021/12/18 09:35:13;;;;;;;12.55;5.93;;;;;;;3.29;100.00;101752.06;5134915;27;20038;-75
2021/12/18 09:37:41;;;;;;;15.02;5.53;;;;;;;3.38;100.00;101758.16;5134436;27;20441;-76
2021/12/18 09:40:12;;;;;;;14.95;5.40;;;;;;;3.47;100.00;101758.97;5135111;27;20061;-74
2021/12/18 09:42:42;;;;;;;13.02;5.60;;;;;;;3.47;100.00;101767.75;5136003;27;20035;-76
2021/12/18 09:45:12;;;;;;;13.30;6.28;;;;;;;3.45;100.00;101754.56;5143886;27;20042;-73
2021/12/18 09:47:40;;;;;;;13.75;5.30;;;;;;;3.45;100.00;101759.84;5155681;27;20050;-74
2021/12/18 09:50:09;;;;;;;10.55;4.75;;;;;;;3.55;100.00;101762.44;5155100;27;20038;-75
2021/12/18 09:52:38;;;;;;;10.85;5.28;;;;;;;3.54;100.00;101758.03;5155220;27;20129;-77
2021/12/18 09:55:08;;;;;;;9.88;4.63;;;;;;;3.61;100.00;101759.75;5155202;27;20134;-75
2021/12/18 09:57:38;;;;;;;12.30;5.32;;;;;;;3.60;100.00;101758.00;5155344;27;20079;-79
2021/12/18 10:00:10;;;;;;;8.65;4.82;;;;;;;3.61;100.00;101751.84;5155117;27;20039;-79
2021/12/18 10:02:39;;;;;;;14.93;5.07;;;;;;;3.69;100.00;101755.28;5155940;27;20039;-79
2021/12/18 10:05:20;;;;;;;10.43;4.78;;;;;;;3.73;100.00;101765.81;5138324;27;20078;-77
2021/12/18 10:08:10;;;;;;;5.93;3.50;;;;;;;3.76;100.00;101756.97;5134708;27;20042;-78
2021/12/18 10:10:57;;;;;;;12.05;4.97;;;;;;;3.72;100.00;101753.50;5136155;27;20063;-79
2021/12/18 10:13:25;;;;;;;14.90;5.28;;;;;;;3.82;100.00;101753.41;5139190;27;20035;-78
2021/12/18 10:16:12;;;;;;;11.40;4.63;;;;;;;3.83;100.00;101756.03;5154646;27;20039;-78
2021/12/18 10:18:40;;;;;;;12.93;5.50;;;;;;;3.98;100.00;101753.28;5154858;27;20046;-78
2021/12/18 10:21:10;;;;;;;12.05;4.97;;;;;;;4.02;100.00;101756.75;5154357;27;20039;-76
2021/12/18 10:23:41;;;;;;;8.65;4.63;;;;;;;4.03;100.00;101747.94;5154871;27;20045;-78
2021/12/18 10:26:28;;;;;;;12.48;4.90;;;;;;;4.15;100.00;101752.22;5154551;27;20043;-78
2021/12/18 10:28:56;;;;;;;10.73;4.65;;;;;;;4.16;100.00;101743.44;5154427;27;20050;-78
2021/12/18 10:31:41;;;;;;;11.60;4.18;;;;;;;4.18;100.00;101737.25;5154781;27;20042;-78
2021/12/18 10:34:17;;;;;;;9.95;5.05;;;;;;;4.29;100.00;101727.44;5136965;27;20369;-82
2021/12/18 10:37:14;;;;;;;11.40;5.13;;;;;;;4.34;100.00;101722.09;5134491;27;20066;-81
2021/12/18 10:39:45;;;;;;;9.80;4.00;;;;;;;4.37;100.00;101727.34;5134303;27;20043;-79
2021/12/18 10:42:23;;;;;;;7.93;4.40;;;;;;;4.43;100.00;101719.34;5138917;27;20043;-84
2021/12/18 10:45:15;;;;;;;8.93;4.15;;;;;;;4.50;100.00;101718.38;5134074;27;20047;-81
2021/12/18 10:48:00;;;;;;;10.55;4.80;;;;;;;4.58;100.00;101713.00;5134355;27;20051;-84
2021/12/18 10:50:42;;;;;;;8.95;3.75;;;;;;;4.63;97.20;101718.22;5134282;27;20050;-84
2021/12/18 10:53:13;;;;;;;8.05;3.72;;;;;;;4.67;95.21;101710.25;5138610;27;20046;-78
2021/12/18 10:55:47;;;;;;;9.23;3.78;;;;;;;4.73;96.22;101704.00;5134099;27;20046;-80
2021/12/18 10:58:18;;;;;;;7.75;3.72;;;;;;;4.85;95.55;101701.22;5132804;28;20058;-80
2021/12/18 11:00:52;;;;;;;6.60;3.55;;;;;;;4.88;96.85;101702.03;5134188;27;20043;-83
2021/12/18 11:03:26;;;;;;;;;;;;;;;4.75;99.80;101703.09;5134651;27;20063;-83
2021/12/18 11:06:16;;;;;;;7.55;3.88;;;;;;;4.76;97.48;101693.41;5139223;27;19929;-82
2021/12/18 11:09:09;;;;;;;10.98;3.90;;;;;;;4.93;95.18;101701.13;5138366;27;20051;-82
2021/12/18 11:14:26;;;;;;;6.55;3.05;;;;;;;4.92;94.02;101671.13;5133645;28;20040;-78
2021/12/18 11:16:59;;;;;;;7.93;3.45;;;;;;;4.97;94.01;101671.94;5133303;28;20043;-79
2021/12/18 11:19:31;;;;;;;7.47;3.53;;;;;;;5.09;93.33;101660.31;5134001;28;20043;-79
2021/12/18 11:22:02;;;;;;;9.05;3.33;;;;;;;5.16;92.53;101652.25;5133537;28;20055;-79
2021/12/18 11:24:33;;;;;;;6.53;3.28;;;;;;;5.20;91.42;101655.72;5133606;27;20039;-79
2021/12/18 11:27:06;;;;;;;7.57;3.40;;;;;;;5.28;91.59;101637.09;5133312;28;20104;-79
2021/12/18 11:29:41;;;;;;;6.37;3.30;;;;;;;5.36;92.50;101625.47;5133557;28;20100;-79
2021/12/18 11:32:12;;;;;;;6.28;3.05;;;;;;;5.51;91.14;101632.28;5132478;28;20355;-80
2021/12/18 11:34:42;;;;;;;9.10;3.15;;;;;;;5.61;91.08;101639.19;5133767;27;20114;-87
2021/12/18 11:37:13;;;;;;;10.20;3.13;;;;;;;5.60;88.99;101640.06;5136953;27;20081;-80
2021/12/18 11:39:44;;;;;;;8.68;3.70;;;;;;;5.60;90.58;101631.25;5151354;27;20046;-79
2021/12/18 11:42:14;;;;;;;9.18;3.40;;;;;;;5.46;91.15;101642.94;5139752;27;20050;-76
2021/12/18 11:44:52;;;;;;;7.40;3.20;;;;;;;5.46;90.07;101650.00;5155492;27;20047;-75
2021/12/18 11:47:26;;;;;;;8.63;3.15;;;;;;;5.41;90.53;101650.09;5146830;27;20052;-75
2021/12/18 11:49:58;;;;;;;9.52;3.97;;;;;;;5.40;92.21;101647.44;5154366;27;20046;-75
2021/12/18 11:52:26;;;;;;;8.20;3.45;;;;;;;5.38;92.41;101636.03;5125651;27;20483;-75
2021/12/18 11:54:57;;;;;;;7.45;3.33;;;;;;;5.43;92.51;101628.91;5149699;27;20047;-75
2021/12/18 11:57:48;;;;;;;9.60;3.80;;;;;;;5.43;91.89;101628.91;5149073;27;20043;-76
2021/12/18 12:00:39;;;;;;;7.43;3.80;;;;;;;5.40;91.48;101635.13;5141798;27;20039;-74
2021/12/18 12:03:10;;;;;;;9.32;3.60;;;;;;;5.46;92.56;101623.53;5143579;27;20051;-75
2021/12/18 12:05:45;;;;;;;7.88;3.47;;;;;;;5.43;92.87;101628.91;5136953;27;20035;-75
2021/12/18 12:08:26;;;;;;;8.52;3.10;;;;;;;5.39;90.85;101628.06;5136767;27;20046;-75
2021/12/18 12:11:16;;;;;;;8.20;3.00;;;;;;;5.38;91.04;101630.75;5136635;27;20093;-75